sensor_id;sensor_type;location;lat;lon;timestamp;temperature;humidity
12977;DHT22;6553;48.412;9.514;2023-06-24T00:00:08;24.00;68.80
12977;DHT22;6553;48.412;9.514;2023-06-24T00:02:38;24.00;68.80
12977;DHT22;6553;48.412;9.514;2023-06-24T00:05:06;24.00;68.90
12977;DHT22;6553;48.412;9.514;2023-06-24T00:07:34;24.00;69.70
12977;DHT22;6553;48.412;9.514;2023-06-24T00:10:13;24.00;70.00
12977;DHT22;6553;48.412;9.514;2023-06-24T00:12:39;24.00;70.00
12977;DHT22;6553;48.412;9.514;2023-06-24T00:15:07;24.00;69.70
12977;DHT22;6553;48.412;9.514;2023-06-24T00:17:35;24.00;69.40
12977;DHT22;6553;48.412;9.514;2023-06-24T00:20:01;24.00;69.80
12977;DHT22;6553;48.412;9.514;2023-06-24T00:22:29;24.00;70.00
12977;DHT22;6553;48.412;9.514;2023-06-24T00:24:55;24.00;70.00
12977;DHT22;6553;48.412;9.514;2023-06-24T00:27:22;24.00;70.10
12977;DHT22;6553;48.412;9.514;2023-06-24T00:29:47;24.00;70.20
12977;DHT22;6553;48.412;9.514;2023-06-24T00:32:13;24.10;70.30
12977;DHT22;6553;48.412;9.514;2023-06-24T00:34:39;24.00;70.30
12977;DHT22;6553;48.412;9.514;2023-06-24T00:37:12;24.00;70.40
12977;DHT22;6553;48.412;9.514;2023-06-24T00:39:38;24.10;70.70
12977;DHT22;6553;48.412;9.514;2023-06-24T00:42:05;24.10;70.70
12977;DHT22;6553;48.412;9.514;2023-06-24T00:44:31;24.10;70.90
12977;DHT22;6553;48.412;9.514;2023-06-24T00:47:01;24.10;71.00
12977;DHT22;6553;48.412;9.514;2023-06-24T00:49:27;24.10;71.80
12977;DHT22;6553;48.412;9.514;2023-06-24T00:51:53;24.10;71.00
12977;DHT22;6553;48.412;9.514;2023-06-24T00:54:21;24.10;71.10
12977;DHT22;6553;48.412;9.514;2023-06-24T00:56:47;24.10;71.40
12977;DHT22;6553;48.412;9.514;2023-06-24T00:59:15;24.10;71.50
12977;DHT22;6553;48.412;9.514;2023-06-24T01:01:42;24.10;71.40
12977;DHT22;6553;48.412;9.514;2023-06-24T01:04:10;24.10;71.50
12977;DHT22;6553;48.412;9.514;2023-06-24T01:06:37;24.10;71.40
12977;DHT22;6553;48.412;9.514;2023-06-24T01:09:09;24.10;72.10
12977;DHT22;6553;48.412;9.514;2023-06-24T01:11:34;24.00;71.30
12977;DHT22;6553;48.412;9.514;2023-06-24T01:14:00;24.00;71.30
12977;DHT22;6553;48.412;9.514;2023-06-24T01:16:40;24.10;71.40
12977;DHT22;6553;48.412;9.514;2023-06-24T01:19:21;24.10;71.70
12977;DHT22;6553;48.412;9.514;2023-06-24T01:27:54;24.20;71.80
12977;DHT22;6553;48.412;9.514;2023-06-24T01:33:13;23.80;69.80
12977;DHT22;6553;48.412;9.514;2023-06-24T01:35:46;23.60;69.80
12977;DHT22;6553;48.412;9.514;2023-06-24T01:39:03;23.60;69.80
12977;DHT22;6553;48.412;9.514;2023-06-24T01:41:14;23.50;69.60
12977;DHT22;6553;48.412;9.514;2023-06-24T01:43:44;23.40;69.40
12977;DHT22;6553;48.412;9.514;2023-06-24T01:46:14;23.40;69.20
12977;DHT22;6553;48.412;9.514;2023-06-24T01:48:44;23.40;69.90
12977;DHT22;6553;48.412;9.514;2023-06-24T01:51:13;23.40;68.80
12977;DHT22;6553;48.412;9.514;2023-06-24T01:53:45;23.40;68.70
12977;DHT22;6553;48.412;9.514;2023-06-24T01:56:15;23.30;68.50
12977;DHT22;6553;48.412;9.514;2023-06-24T01:58:45;23.30;68.50
12977;DHT22;6553;48.412;9.514;2023-06-24T02:01:14;23.30;68.70
12977;DHT22;6553;48.412;9.514;2023-06-24T02:03:41;23.30;68.60
12977;DHT22;6553;48.412;9.514;2023-06-24T02:06:08;23.20;68.40
12977;DHT22;6553;48.412;9.514;2023-06-24T02:08:37;23.20;68.40
12977;DHT22;6553;48.412;9.514;2023-06-24T02:11:04;23.30;68.50
12977;DHT22;6553;48.412;9.514;2023-06-24T02:13:32;23.30;68.20
12977;DHT22;6553;48.412;9.514;2023-06-24T02:16:02;23.30;68.70
12977;DHT22;6553;48.412;9.514;2023-06-24T02:18:34;23.30;69.00
12977;DHT22;6553;48.412;9.514;2023-06-24T02:21:03;23.30;68.50
12977;DHT22;6553;48.412;9.514;2023-06-24T02:23:30;23.20;67.50
12977;DHT22;6553;48.412;9.514;2023-06-24T02:25:57;23.20;67.50
12977;DHT22;6553;48.412;9.514;2023-06-24T02:28:27;23.10;67.30
12977;DHT22;6553;48.412;9.514;2023-06-24T02:30:54;23.10;67.10
12977;DHT22;6553;48.412;9.514;2023-06-24T02:33:22;23.10;67.00
12977;DHT22;6553;48.412;9.514;2023-06-24T02:35:48;23.10;66.80
12977;DHT22;6553;48.412;9.514;2023-06-24T02:38:14;23.10;66.60
12977;DHT22;6553;48.412;9.514;2023-06-24T02:40:39;23.10;66.60
12977;DHT22;6553;48.412;9.514;2023-06-24T02:43:07;23.10;66.50
12977;DHT22;6553;48.412;9.514;2023-06-24T02:45:33;23.10;66.50
12977;DHT22;6553;48.412;9.514;2023-06-24T02:48:00;23.10;66.40
12977;DHT22;6553;48.412;9.514;2023-06-24T02:50:27;23.10;66.40
12977;DHT22;6553;48.412;9.514;2023-06-24T02:52:54;23.00;65.80
12977;DHT22;6553;48.412;9.514;2023-06-24T02:55:25;23.00;66.10
12977;DHT22;6553;48.412;9.514;2023-06-24T02:57:57;23.00;66.10
12977;DHT22;6553;48.412;9.514;2023-06-24T03:00:24;22.90;66.00
12977;DHT22;6553;48.412;9.514;2023-06-24T03:03:13;23.00;66.10
12977;DHT22;6553;48.412;9.514;2023-06-24T03:05:46;23.00;66.20
12977;DHT22;6553;48.412;9.514;2023-06-24T03:08:16;22.90;65.90
12977;DHT22;6553;48.412;9.514;2023-06-24T03:10:45;22.90;65.90
12977;DHT22;6553;48.412;9.514;2023-06-24T03:13:17;23.00;65.80
12977;DHT22;6553;48.412;9.514;2023-06-24T03:15:46;22.90;65.70
12977;DHT22;6553;48.412;9.514;2023-06-24T03:18:12;22.90;65.50
12977;DHT22;6553;48.412;9.514;2023-06-24T03:20:38;22.90;65.50
12977;DHT22;6553;48.412;9.514;2023-06-24T03:23:09;22.90;65.60
12977;DHT22;6553;48.412;9.514;2023-06-24T03:25:36;22.80;65.40
12977;DHT22;6553;48.412;9.514;2023-06-24T03:28:02;22.90;65.40
12977;DHT22;6553;48.412;9.514;2023-06-24T03:30:37;22.80;65.40
12977;DHT22;6553;48.412;9.514;2023-06-24T03:33:03;22.80;65.40
12977;DHT22;6553;48.412;9.514;2023-06-24T03:35:31;22.80;65.30
12977;DHT22;6553;48.412;9.514;2023-06-24T03:38:01;22.80;65.20
12977;DHT22;6553;48.412;9.514;2023-06-24T03:40:29;22.70;65.10
12977;DHT22;6553;48.412;9.514;2023-06-24T03:42:55;22.80;65.20
12977;DHT22;6553;48.412;9.514;2023-06-24T03:45:21;22.70;65.00
12977;DHT22;6553;48.412;9.514;2023-06-24T03:47:47;22.70;65.00
12977;DHT22;6553;48.412;9.514;2023-06-24T03:50:12;22.70;65.00
12977;DHT22;6553;48.412;9.514;2023-06-24T03:52:38;22.80;65.10
12977;DHT22;6553;48.412;9.514;2023-06-24T03:55:05;22.80;65.00
12977;DHT22;6553;48.412;9.514;2023-06-24T03:57:31;22.80;65.00
12977;DHT22;6553;48.412;9.514;2023-06-24T03:59:58;22.70;65.00
12977;DHT22;6553;48.412;9.514;2023-06-24T04:02:24;22.80;65.00
12977;DHT22;6553;48.412;9.514;2023-06-24T04:04:50;22.70;64.90
12977;DHT22;6553;48.412;9.514;2023-06-24T04:07:16;22.70;65.00
12977;DHT22;6553;48.412;9.514;2023-06-24T04:09:55;22.70;65.00
12977;DHT22;6553;48.412;9.514;2023-06-24T04:12:22;22.70;65.00
12977;DHT22;6553;48.412;9.514;2023-06-24T04:14:48;22.70;65.00
12977;DHT22;6553;48.412;9.514;2023-06-24T04:17:14;22.70;65.00
12977;DHT22;6553;48.412;9.514;2023-06-24T04:19:39;22.70;65.10
12977;DHT22;6553;48.412;9.514;2023-06-24T04:22:06;22.70;65.10
12977;DHT22;6553;48.412;9.514;2023-06-24T04:24:32;22.70;65.00
12977;DHT22;6553;48.412;9.514;2023-06-24T04:26:58;22.70;65.10
12977;DHT22;6553;48.412;9.514;2023-06-24T04:29:23;22.70;65.30
12977;DHT22;6553;48.412;9.514;2023-06-24T04:31:49;22.70;65.30
12977;DHT22;6553;48.412;9.514;2023-06-24T04:34:15;22.70;65.50
12977;DHT22;6553;48.412;9.514;2023-06-24T04:36:42;22.70;65.30
12977;DHT22;6553;48.412;9.514;2023-06-24T04:39:07;22.70;65.30
12977;DHT22;6553;48.412;9.514;2023-06-24T04:41:34;22.70;65.40
12977;DHT22;6553;48.412;9.514;2023-06-24T04:44:00;22.70;65.40
12977;DHT22;6553;48.412;9.514;2023-06-24T04:46:25;22.70;65.40
12977;DHT22;6553;48.412;9.514;2023-06-24T04:48:51;22.70;65.40
12977;DHT22;6553;48.412;9.514;2023-06-24T04:51:17;22.70;65.40
12977;DHT22;6553;48.412;9.514;2023-06-24T04:53:43;22.80;65.90
12977;DHT22;6553;48.412;9.514;2023-06-24T04:56:08;22.80;65.90
12977;DHT22;6553;48.412;9.514;2023-06-24T04:58:34;22.80;65.90
12977;DHT22;6553;48.412;9.514;2023-06-24T05:01:00;22.80;65.90
12977;DHT22;6553;48.412;9.514;2023-06-24T05:03:26;22.80;66.00
12977;DHT22;6553;48.412;9.514;2023-06-24T05:05:51;22.80;65.90
12977;DHT22;6553;48.412;9.514;2023-06-24T05:08:17;22.80;65.90
12977;DHT22;6553;48.412;9.514;2023-06-24T05:10:43;22.80;66.00
12977;DHT22;6553;48.412;9.514;2023-06-24T05:13:09;22.80;66.20
12977;DHT22;6553;48.412;9.514;2023-06-24T05:15:35;22.80;66.30
12977;DHT22;6553;48.412;9.514;2023-06-24T05:18:01;22.80;66.60
12977;DHT22;6553;48.412;9.514;2023-06-24T05:20:26;22.70;66.50
12977;DHT22;6553;48.412;9.514;2023-06-24T05:22:54;22.80;66.60
12977;DHT22;6553;48.412;9.514;2023-06-24T05:25:20;22.80;66.80
12977;DHT22;6553;48.412;9.514;2023-06-24T05:27:46;22.80;67.00
12977;DHT22;6553;48.412;9.514;2023-06-24T05:30:12;22.80;67.10
12977;DHT22;6553;48.412;9.514;2023-06-24T05:32:38;22.80;67.30
12977;DHT22;6553;48.412;9.514;2023-06-24T05:35:04;22.80;67.30
12977;DHT22;6553;48.412;9.514;2023-06-24T05:37:30;22.90;67.40
12977;DHT22;6553;48.412;9.514;2023-06-24T05:39:56;23.00;67.70
12977;DHT22;6553;48.412;9.514;2023-06-24T05:42:23;23.00;67.60
12977;DHT22;6553;48.412;9.514;2023-06-24T05:44:49;23.10;67.70
12977;DHT22;6553;48.412;9.514;2023-06-24T05:47:14;23.10;67.80
12977;DHT22;6553;48.412;9.514;2023-06-24T05:49:40;23.10;67.70
12977;DHT22;6553;48.412;9.514;2023-06-24T05:52:06;23.20;68.10
12977;DHT22;6553;48.412;9.514;2023-06-24T05:54:32;23.20;67.90
12977;DHT22;6553;48.412;9.514;2023-06-24T05:56:58;23.20;67.80
12977;DHT22;6553;48.412;9.514;2023-06-24T05:59:23;23.20;68.00
12977;DHT22;6553;48.412;9.514;2023-06-24T06:01:49;23.20;67.90
12977;DHT22;6553;48.412;9.514;2023-06-24T06:04:15;23.30;68.10
12977;DHT22;6553;48.412;9.514;2023-06-24T06:06:41;23.30;67.80
12977;DHT22;6553;48.412;9.514;2023-06-24T06:09:07;23.30;67.90
12977;DHT22;6553;48.412;9.514;2023-06-24T06:11:32;23.30;67.70
12977;DHT22;6553;48.412;9.514;2023-06-24T06:13:58;23.30;67.50
12977;DHT22;6553;48.412;9.514;2023-06-24T06:16:24;23.30;67.90
12977;DHT22;6553;48.412;9.514;2023-06-24T06:18:50;23.40;68.20
12977;DHT22;6553;48.412;9.514;2023-06-24T06:21:16;23.10;65.90
12977;DHT22;6553;48.412;9.514;2023-06-24T06:23:42;22.90;66.10
12977;DHT22;6553;48.412;9.514;2023-06-24T06:26:08;22.70;65.90
12977;DHT22;6553;48.412;9.514;2023-06-24T06:28:34;22.80;65.70
12977;DHT22;6553;48.412;9.514;2023-06-24T06:31:00;22.50;65.50
12977;DHT22;6553;48.412;9.514;2023-06-24T06:33:25;22.40;65.40
12977;DHT22;6553;48.412;9.514;2023-06-24T06:35:51;22.50;65.00
12977;DHT22;6553;48.412;9.514;2023-06-24T06:38:17;22.40;65.10
12977;DHT22;6553;48.412;9.514;2023-06-24T06:40:43;22.40;65.30
12977;DHT22;6553;48.412;9.514;2023-06-24T06:43:08;22.40;65.50
12977;DHT22;6553;48.412;9.514;2023-06-24T06:45:34;22.40;64.80
12977;DHT22;6553;48.412;9.514;2023-06-24T06:48:02;22.40;64.30
12977;DHT22;6553;48.412;9.514;2023-06-24T06:50:31;22.30;64.20
12977;DHT22;6553;48.412;9.514;2023-06-24T06:52:56;22.30;63.40
12977;DHT22;6553;48.412;9.514;2023-06-24T06:55:22;22.20;63.20
12977;DHT22;6553;48.412;9.514;2023-06-24T06:57:48;22.20;63.40
12977;DHT22;6553;48.412;9.514;2023-06-24T07:00:14;22.30;63.50
12977;DHT22;6553;48.412;9.514;2023-06-24T07:02:40;22.20;63.20
12977;DHT22;6553;48.412;9.514;2023-06-24T07:05:06;22.40;63.40
12977;DHT22;6553;48.412;9.514;2023-06-24T07:07:32;22.30;63.50
12977;DHT22;6553;48.412;9.514;2023-06-24T07:09:58;22.40;64.30
12977;DHT22;6553;48.412;9.514;2023-06-24T07:12:24;22.60;65.40
12977;DHT22;6553;48.412;9.514;2023-06-24T07:14:50;22.70;63.80
12977;DHT22;6553;48.412;9.514;2023-06-24T07:17:16;22.80;63.90
12977;DHT22;6553;48.412;9.514;2023-06-24T07:19:42;22.90;63.90
12977;DHT22;6553;48.412;9.514;2023-06-24T07:22:08;22.90;63.50
12977;DHT22;6553;48.412;9.514;2023-06-24T07:24:33;23.00;63.60
12977;DHT22;6553;48.412;9.514;2023-06-24T07:26:59;23.00;63.50
12977;DHT22;6553;48.412;9.514;2023-06-24T07:29:25;23.10;63.50
12977;DHT22;6553;48.412;9.514;2023-06-24T07:31:51;23.10;63.40
12977;DHT22;6553;48.412;9.514;2023-06-24T07:34:16;23.10;63.40
12977;DHT22;6553;48.412;9.514;2023-06-24T07:36:42;23.10;63.30
12977;DHT22;6553;48.412;9.514;2023-06-24T07:39:08;23.10;63.30
12977;DHT22;6553;48.412;9.514;2023-06-24T07:41:34;23.10;63.30
12977;DHT22;6553;48.412;9.514;2023-06-24T07:44:00;23.10;63.30
12977;DHT22;6553;48.412;9.514;2023-06-24T07:46:25;23.20;63.40
12977;DHT22;6553;48.412;9.514;2023-06-24T07:48:53;23.20;63.40
12977;DHT22;6553;48.412;9.514;2023-06-24T07:51:19;23.20;63.40
12977;DHT22;6553;48.412;9.514;2023-06-24T07:53:45;23.20;63.30
12977;DHT22;6553;48.412;9.514;2023-06-24T07:56:11;23.20;63.30
12977;DHT22;6553;48.412;9.514;2023-06-24T07:58:37;23.20;63.30
12977;DHT22;6553;48.412;9.514;2023-06-24T08:01:04;23.20;63.30
12977;DHT22;6553;48.412;9.514;2023-06-24T08:03:29;23.30;63.40
12977;DHT22;6553;48.412;9.514;2023-06-24T08:05:55;23.30;63.50
12977;DHT22;6553;48.412;9.514;2023-06-24T08:08:22;23.20;63.40
12977;DHT22;6553;48.412;9.514;2023-06-24T08:10:48;23.30;63.50
12977;DHT22;6553;48.412;9.514;2023-06-24T08:13:14;23.30;63.60
12977;DHT22;6553;48.412;9.514;2023-06-24T08:15:39;23.30;64.40
12977;DHT22;6553;48.412;9.514;2023-06-24T08:18:05;23.30;63.60
12977;DHT22;6553;48.412;9.514;2023-06-24T08:20:31;23.30;63.60
12977;DHT22;6553;48.412;9.514;2023-06-24T08:22:57;23.30;63.60
12977;DHT22;6553;48.412;9.514;2023-06-24T08:25:22;23.30;63.70
12977;DHT22;6553;48.412;9.514;2023-06-24T08:27:48;23.30;63.60
12977;DHT22;6553;48.412;9.514;2023-06-24T08:30:14;23.30;63.50
12977;DHT22;6553;48.412;9.514;2023-06-24T08:32:41;23.30;63.60
12977;DHT22;6553;48.412;9.514;2023-06-24T08:35:08;23.30;63.60
12977;DHT22;6553;48.412;9.514;2023-06-24T08:37:35;23.30;63.60
12977;DHT22;6553;48.412;9.514;2023-06-24T08:40:01;23.40;63.60
12977;DHT22;6553;48.412;9.514;2023-06-24T08:42:30;23.40;63.60
12977;DHT22;6553;48.412;9.514;2023-06-24T08:44:56;23.40;63.60
12977;DHT22;6553;48.412;9.514;2023-06-24T08:47:24;23.40;63.50
12977;DHT22;6553;48.412;9.514;2023-06-24T08:49:58;23.50;63.50
12977;DHT22;6553;48.412;9.514;2023-06-24T08:52:36;23.50;63.60
12977;DHT22;6553;48.412;9.514;2023-06-24T08:55:06;23.50;63.40
12977;DHT22;6553;48.412;9.514;2023-06-24T08:57:32;23.50;63.40
12977;DHT22;6553;48.412;9.514;2023-06-24T08:59:58;23.40;63.50
12977;DHT22;6553;48.412;9.514;2023-06-24T09:02:24;23.50;63.80
12977;DHT22;6553;48.412;9.514;2023-06-24T09:04:51;23.40;63.60
12977;DHT22;6553;48.412;9.514;2023-06-24T09:07:26;23.40;63.50
12977;DHT22;6553;48.412;9.514;2023-06-24T09:09:53;23.50;63.70
12977;DHT22;6553;48.412;9.514;2023-06-24T09:12:19;23.40;63.60
12977;DHT22;6553;48.412;9.514;2023-06-24T09:14:49;23.40;63.60
12977;DHT22;6553;48.412;9.514;2023-06-24T09:17:16;23.50;63.50
12977;DHT22;6553;48.412;9.514;2023-06-24T09:19:42;23.50;63.50
12977;DHT22;6553;48.412;9.514;2023-06-24T09:22:10;23.50;63.50
12977;DHT22;6553;48.412;9.514;2023-06-24T09:24:47;23.50;63.50
12977;DHT22;6553;48.412;9.514;2023-06-24T09:27:17;23.50;63.70
12977;DHT22;6553;48.412;9.514;2023-06-24T09:29:47;23.60;63.80
12977;DHT22;6553;48.412;9.514;2023-06-24T09:32:13;23.60;63.70
12977;DHT22;6553;48.412;9.514;2023-06-24T09:34:40;23.50;63.50
12977;DHT22;6553;48.412;9.514;2023-06-24T09:37:06;23.60;63.70
12977;DHT22;6553;48.412;9.514;2023-06-24T09:39:39;23.50;63.60
12977;DHT22;6553;48.412;9.514;2023-06-24T09:42:06;23.50;63.70
12977;DHT22;6553;48.412;9.514;2023-06-24T09:44:33;23.50;63.60
12977;DHT22;6553;48.412;9.514;2023-06-24T09:46:59;23.60;63.90
12977;DHT22;6553;48.412;9.514;2023-06-24T09:49:25;23.60;63.70
12977;DHT22;6553;48.412;9.514;2023-06-24T09:51:57;23.60;63.80
12977;DHT22;6553;48.412;9.514;2023-06-24T09:54:26;23.60;63.70
12977;DHT22;6553;48.412;9.514;2023-06-24T09:56:54;23.60;63.80
12977;DHT22;6553;48.412;9.514;2023-06-24T09:59:22;23.60;63.90
12977;DHT22;6553;48.412;9.514;2023-06-24T10:01:52;23.60;63.80
12977;DHT22;6553;48.412;9.514;2023-06-24T10:04:20;23.60;63.80
12977;DHT22;6553;48.412;9.514;2023-06-24T10:06:50;23.60;63.90
12977;DHT22;6553;48.412;9.514;2023-06-24T10:09:16;23.60;63.80
12977;DHT22;6553;48.412;9.514;2023-06-24T10:11:46;23.60;64.00
12977;DHT22;6553;48.412;9.514;2023-06-24T10:14:16;23.60;64.00
12977;DHT22;6553;48.412;9.514;2023-06-24T10:16:44;23.60;63.70
12977;DHT22;6553;48.412;9.514;2023-06-24T10:19:10;23.60;63.80
12977;DHT22;6553;48.412;9.514;2023-06-24T10:21:57;23.60;63.90
12977;DHT22;6553;48.412;9.514;2023-06-24T10:24:36;23.60;63.70
12977;DHT22;6553;48.412;9.514;2023-06-24T10:27:06;23.60;63.80
12977;DHT22;6553;48.412;9.514;2023-06-24T10:29:46;23.60;63.70
12977;DHT22;6553;48.412;9.514;2023-06-24T10:32:13;23.60;63.70
12977;DHT22;6553;48.412;9.514;2023-06-24T10:34:44;23.60;63.70
12977;DHT22;6553;48.412;9.514;2023-06-24T10:40:02;23.60;64.00
12977;DHT22;6553;48.412;9.514;2023-06-24T10:47:37;23.60;63.70
12977;DHT22;6553;48.412;9.514;2023-06-24T10:50:09;23.60;63.80
12977;DHT22;6553;48.412;9.514;2023-06-24T10:52:41;23.60;63.50
12977;DHT22;6553;48.412;9.514;2023-06-24T10:55:09;23.60;63.80
12977;DHT22;6553;48.412;9.514;2023-06-24T10:57:35;23.60;63.60
12977;DHT22;6553;48.412;9.514;2023-06-24T11:00:02;23.60;63.70
12977;DHT22;6553;48.412;9.514;2023-06-24T11:02:30;23.60;63.60
12977;DHT22;6553;48.412;9.514;2023-06-24T11:04:59;23.60;63.70
12977;DHT22;6553;48.412;9.514;2023-06-24T11:07:28;23.60;63.80
12977;DHT22;6553;48.412;9.514;2023-06-24T11:12:52;23.70;63.90
12977;DHT22;6553;48.412;9.514;2023-06-24T11:15:18;23.60;63.80
12977;DHT22;6553;48.412;9.514;2023-06-24T11:17:45;23.60;63.60
12977;DHT22;6553;48.412;9.514;2023-06-24T11:20:14;23.60;63.50
12977;DHT22;6553;48.412;9.514;2023-06-24T11:22:41;23.60;63.80
12977;DHT22;6553;48.412;9.514;2023-06-24T11:25:20;23.70;63.60
12977;DHT22;6553;48.412;9.514;2023-06-24T11:27:52;23.70;63.80
12977;DHT22;6553;48.412;9.514;2023-06-24T11:30:18;23.60;63.60
12977;DHT22;6553;48.412;9.514;2023-06-24T11:32:45;23.70;63.70
12977;DHT22;6553;48.412;9.514;2023-06-24T11:35:13;23.70;63.80
12977;DHT22;6553;48.412;9.514;2023-06-24T11:37:46;23.60;63.70
12977;DHT22;6553;48.412;9.514;2023-06-24T11:40:13;23.70;63.90
12977;DHT22;6553;48.412;9.514;2023-06-24T11:42:42;23.70;63.80
12977;DHT22;6553;48.412;9.514;2023-06-24T11:45:11;23.70;63.90
12977;DHT22;6553;48.412;9.514;2023-06-24T11:47:39;23.70;64.00
12977;DHT22;6553;48.412;9.514;2023-06-24T11:50:06;23.70;63.70
12977;DHT22;6553;48.412;9.514;2023-06-24T11:55:02;23.70;63.80
12977;DHT22;6553;48.412;9.514;2023-06-24T12:00:38;23.70;63.40
12977;DHT22;6553;48.412;9.514;2023-06-24T12:03:08;23.70;63.30
12977;DHT22;6553;48.412;9.514;2023-06-24T12:05:36;23.70;63.50
12977;DHT22;6553;48.412;9.514;2023-06-24T12:10:30;23.70;63.50
12977;DHT22;6553;48.412;9.514;2023-06-24T12:13:03;23.70;63.50
12977;DHT22;6553;48.412;9.514;2023-06-24T12:15:32;23.70;63.70
12977;DHT22;6553;48.412;9.514;2023-06-24T12:17:58;23.70;63.60
12977;DHT22;6553;48.412;9.514;2023-06-24T12:20:25;23.70;63.60
12977;DHT22;6553;48.412;9.514;2023-06-24T12:22:51;23.70;63.60
12977;DHT22;6553;48.412;9.514;2023-06-24T12:25:18;23.70;63.60
12977;DHT22;6553;48.412;9.514;2023-06-24T12:27:44;23.70;63.50
12977;DHT22;6553;48.412;9.514;2023-06-24T12:30:10;23.70;63.40
12977;DHT22;6553;48.412;9.514;2023-06-24T12:32:37;23.70;63.30
12977;DHT22;6553;48.412;9.514;2023-06-24T12:35:04;23.70;63.30
12977;DHT22;6553;48.412;9.514;2023-06-24T12:37:31;23.70;63.50
12977;DHT22;6553;48.412;9.514;2023-06-24T12:39:58;23.70;63.10
12977;DHT22;6553;48.412;9.514;2023-06-24T12:42:25;23.70;63.30
12977;DHT22;6553;48.412;9.514;2023-06-24T12:44:52;23.70;63.00
12977;DHT22;6553;48.412;9.514;2023-06-24T12:47:18;23.70;63.20
12977;DHT22;6553;48.412;9.514;2023-06-24T12:49:44;23.70;63.30
12977;DHT22;6553;48.412;9.514;2023-06-24T12:52:10;23.70;62.90
12977;DHT22;6553;48.412;9.514;2023-06-24T12:54:35;23.70;63.10
12977;DHT22;6553;48.412;9.514;2023-06-24T12:57:02;23.70;63.20
12977;DHT22;6553;48.412;9.514;2023-06-24T12:59:27;23.80;63.50
12977;DHT22;6553;48.412;9.514;2023-06-24T13:01:53;23.70;63.30
12977;DHT22;6553;48.412;9.514;2023-06-24T13:04:19;23.80;63.20
12977;DHT22;6553;48.412;9.514;2023-06-24T13:06:47;23.70;63.00
12977;DHT22;6553;48.412;9.514;2023-06-24T13:09:13;23.80;63.20
12977;DHT22;6553;48.412;9.514;2023-06-24T13:11:39;23.80;63.10
12977;DHT22;6553;48.412;9.514;2023-06-24T13:14:05;23.80;63.30
12977;DHT22;6553;48.412;9.514;2023-06-24T13:16:31;23.70;63.30
12977;DHT22;6553;48.412;9.514;2023-06-24T13:18:58;23.70;63.30
12977;DHT22;6553;48.412;9.514;2023-06-24T13:21:24;23.70;63.10
12977;DHT22;6553;48.412;9.514;2023-06-24T13:23:49;23.80;63.40
12977;DHT22;6553;48.412;9.514;2023-06-24T13:26:15;23.70;63.30
12977;DHT22;6553;48.412;9.514;2023-06-24T13:28:41;23.70;63.20
12977;DHT22;6553;48.412;9.514;2023-06-24T13:31:07;23.80;63.00
12977;DHT22;6553;48.412;9.514;2023-06-24T13:33:33;23.70;62.70
12977;DHT22;6553;48.412;9.514;2023-06-24T13:35:59;23.70;62.80
12977;DHT22;6553;48.412;9.514;2023-06-24T13:38:24;23.80;63.10
12977;DHT22;6553;48.412;9.514;2023-06-24T13:40:50;23.70;63.00
12977;DHT22;6553;48.412;9.514;2023-06-24T13:43:16;23.80;62.90
12977;DHT22;6553;48.412;9.514;2023-06-24T13:45:42;23.70;62.60
12977;DHT22;6553;48.412;9.514;2023-06-24T13:48:08;23.80;63.10
12977;DHT22;6553;48.412;9.514;2023-06-24T13:50:33;23.70;62.80
12977;DHT22;6553;48.412;9.514;2023-06-24T13:52:59;23.70;62.80
12977;DHT22;6553;48.412;9.514;2023-06-24T13:55:25;23.80;62.90
12977;DHT22;6553;48.412;9.514;2023-06-24T13:57:51;23.80;62.90
12977;DHT22;6553;48.412;9.514;2023-06-24T14:00:17;23.80;62.80
12977;DHT22;6553;48.412;9.514;2023-06-24T14:02:43;23.80;62.90
12977;DHT22;6553;48.412;9.514;2023-06-24T14:05:09;23.80;62.70
12977;DHT22;6553;48.412;9.514;2023-06-24T14:07:35;23.80;62.80
12977;DHT22;6553;48.412;9.514;2023-06-24T14:10:00;23.80;63.10
12977;DHT22;6553;48.412;9.514;2023-06-24T14:12:26;23.80;62.90
12977;DHT22;6553;48.412;9.514;2023-06-24T14:14:52;23.80;62.70
12977;DHT22;6553;48.412;9.514;2023-06-24T14:17:18;23.80;63.70
12977;DHT22;6553;48.412;9.514;2023-06-24T14:19:44;23.80;64.20
12977;DHT22;6553;48.412;9.514;2023-06-24T14:22:09;23.80;63.00
12977;DHT22;6553;48.412;9.514;2023-06-24T14:24:36;23.80;63.00
12977;DHT22;6553;48.412;9.514;2023-06-24T14:27:04;23.80;63.00
12977;DHT22;6553;48.412;9.514;2023-06-24T14:29:31;23.80;62.90
12977;DHT22;6553;48.412;9.514;2023-06-24T14:31:57;23.80;62.60
12977;DHT22;6553;48.412;9.514;2023-06-24T14:34:23;23.80;62.90
12977;DHT22;6553;48.412;9.514;2023-06-24T14:36:49;23.80;62.90
12977;DHT22;6553;48.412;9.514;2023-06-24T14:39:15;23.80;62.80
12977;DHT22;6553;48.412;9.514;2023-06-24T14:41:42;23.80;62.90
12977;DHT22;6553;48.412;9.514;2023-06-24T14:44:09;23.80;62.80
12977;DHT22;6553;48.412;9.514;2023-06-24T14:46:35;23.80;62.60
12977;DHT22;6553;48.412;9.514;2023-06-24T14:49:00;23.80;62.80
12977;DHT22;6553;48.412;9.514;2023-06-24T14:51:26;23.80;62.80
12977;DHT22;6553;48.412;9.514;2023-06-24T14:53:52;23.80;62.90
12977;DHT22;6553;48.412;9.514;2023-06-24T14:56:18;23.80;62.80
12977;DHT22;6553;48.412;9.514;2023-06-24T14:58:43;23.80;62.60
12977;DHT22;6553;48.412;9.514;2023-06-24T15:01:09;23.80;62.70
12977;DHT22;6553;48.412;9.514;2023-06-24T15:03:35;23.80;62.80
12977;DHT22;6553;48.412;9.514;2023-06-24T15:06:01;23.80;62.70
12977;DHT22;6553;48.412;9.514;2023-06-24T15:08:26;23.80;62.50
12977;DHT22;6553;48.412;9.514;2023-06-24T15:10:53;23.80;62.80
12977;DHT22;6553;48.412;9.514;2023-06-24T15:13:18;23.80;62.50
12977;DHT22;6553;48.412;9.514;2023-06-24T15:15:44;23.80;62.80
12977;DHT22;6553;48.412;9.514;2023-06-24T15:18:11;23.80;63.10
12977;DHT22;6553;48.412;9.514;2023-06-24T15:20:37;23.80;62.90
12977;DHT22;6553;48.412;9.514;2023-06-24T15:23:02;23.80;62.80
12977;DHT22;6553;48.412;9.514;2023-06-24T15:25:29;23.80;62.90
12977;DHT22;6553;48.412;9.514;2023-06-24T15:27:54;23.80;62.90
12977;DHT22;6553;48.412;9.514;2023-06-24T15:30:20;23.80;62.80
12977;DHT22;6553;48.412;9.514;2023-06-24T15:32:46;23.80;62.80
12977;DHT22;6553;48.412;9.514;2023-06-24T15:35:12;23.80;62.80
12977;DHT22;6553;48.412;9.514;2023-06-24T15:37:38;23.80;62.90
12977;DHT22;6553;48.412;9.514;2023-06-24T15:40:05;23.80;63.00
12977;DHT22;6553;48.412;9.514;2023-06-24T15:42:31;23.80;62.70
12977;DHT22;6553;48.412;9.514;2023-06-24T15:44:57;23.80;62.80
12977;DHT22;6553;48.412;9.514;2023-06-24T15:47:22;23.80;62.80
12977;DHT22;6553;48.412;9.514;2023-06-24T15:49:48;23.80;62.50
12977;DHT22;6553;48.412;9.514;2023-06-24T15:52:14;23.80;62.20
12977;DHT22;6553;48.412;9.514;2023-06-24T15:54:40;23.80;62.50
12977;DHT22;6553;48.412;9.514;2023-06-24T15:57:06;23.80;62.30
12977;DHT22;6553;48.412;9.514;2023-06-24T15:59:32;23.80;62.70
12977;DHT22;6553;48.412;9.514;2023-06-24T16:01:57;23.80;62.70
12977;DHT22;6553;48.412;9.514;2023-06-24T16:04:23;23.80;62.60
12977;DHT22;6553;48.412;9.514;2023-06-24T16:06:49;23.80;62.70
12977;DHT22;6553;48.412;9.514;2023-06-24T16:09:15;23.80;62.60
12977;DHT22;6553;48.412;9.514;2023-06-24T16:11:40;23.80;62.70